Time;durP1;ratioP1;P1;durP2;ratioP2;P2;SDS_P1;SDS_P2;PMS_P1;PMS_P2;Temp;Humidity;BMP_temperature;BMP_pressure;BME280_temperature;BME280_humidity;BME280_pressure;Samples;Min_cycle;Max_cycle;Signal;HPM_P1;HPM_P2
2021/10/08 00:01:46;;;;;;;;;85.50;83.50;;;;;;;;2;288088672;288088672;-79
2021/10/08 00:10:20;;;;;;;;;95.00;95.00;;;;;;;;4449484;30;245096885;-79
2021/10/08 00:15:07;;;;;;;;;;;;;;;;;;2;286177208;286177208;-79
2021/10/08 00:17:32;;;;;;;;;113.33;113.33;;;;;;;;4033522;30;9181872;-79
2021/10/08 00:19:58;;;;;;;;;114.75;114.75;;;;;;;;4636035;30;1858451;-79
2021/10/08 00:24:52;;;;;;;;;;;;;;;;;;2312450;30;201416786;-79
2021/10/08 00:27:17;;;;;;;;;131.00;131.00;;;;;;;;4634945;30;692224;-79
2021/10/08 00:29:43;;;;;;;;;118.75;118.75;;;;;;;;4261950;30;5271789;-79
2021/10/08 00:37:40;;;;;;;;;112.50;112.50;;;;;;;;4665698;30;170469868;-79
2021/10/08 00:40:10;;;;;;;;;128.00;128.00;;;;;;;;942487;30;27779855;-79
2021/10/08 00:42:36;;;;;;;;;128.20;128.20;;;;;;;;4587494;30;1175345;-79
2021/10/08 00:49:37;;;;;;;;;;;;;;;;;;973920;30;134535024;-79
2021/10/08 00:57:48;;;;;;;;;71.00;63.50;;;;;;;;2;252504408;252504408;-78
2021/10/08 01:05:10;;;;;;;;;90.50;90.00;;;;;;;;2;209516021;209516021;-79
2021/10/08 01:14:04;;;;;;;;;88.50;88.50;;;;;;;;2;277667054;277667054;-79
2021/10/08 01:22:28;;;;;;;;;88.50;88.50;;;;;;;;2;229151099;229151099;-79
2021/10/08 01:27:05;;;;;;;;;124.50;124.50;;;;;;;;2;204754457;204754457;-79
2021/10/08 01:30:03;;;;;;;;;101.50;101.50;;;;;;;;362864;30;98788048;-80
2021/10/08 01:34:18;;;;;;;;;94.00;94.00;;;;;;;;158707;30;87513292;-79
2021/10/08 01:44:17;;;;;;;;;105.50;105.50;;;;;;;;318839;30;258135903;-79
2021/10/08 01:49:32;;;;;;;;;87.50;87.00;;;;;;;;2;234070404;234070404;-79
2021/10/08 01:53:26;;;;;;;;;91.50;91.50;;;;;;;;145416;30;229010221;-79
2021/10/08 01:58:52;;;;;;;;;80.00;77.00;;;;;;;;391445;30;215079030;-79
2021/10/08 02:05:56;;;;;;;;;86.00;85.50;;;;;;;;293673;30;258050663;-79
2021/10/08 02:12:16;;;;;;;;;89.00;89.00;;;;;;;;161345;30;264402639;-79
2021/10/08 02:17:47;;;;;;;;;82.50;81.00;;;;;;;;2;260802618;260802618;-79
2021/10/08 02:23:13;;;;;;;;;88.50;88.50;;;;;;;;161341;30;273895777;-79
2021/10/08 02:25:39;;;;;;;;;121.00;121.00;;;;;;;;1909446;30;32426352;-80
2021/10/08 02:35:19;;;;;;;;;;;;;;;;;;969608;30;224707715;-79
2021/10/08 02:44:19;;;;;;;;;73.50;68.50;;;;;;;;2;278247030;278247030;-79
2021/10/08 02:46:58;;;;;;;;;68.50;59.00;;;;;;;;2;157487369;157487369;-79
2021/10/08 02:53:02;;;;;;;;;85.50;85.00;;;;;;;;291262;30;131349734;-79
2021/10/08 03:00:31;;;;;;;;;85.00;84.50;;;;;;;;162142;30;263223369;-79
2021/10/08 03:03:58;;;;;;;;;87.00;86.00;;;;;;;;5;17082790;62168816;-79
2021/10/08 03:06:24;;;;;;;;;107.25;107.25;;;;;;;;2155234;30;18376611;-79
2021/10/08 03:08:50;;;;;;;;;108.50;108.50;;;;;;;;4100231;30;3910187;-80
2021/10/08 03:11:15;;;;;;;;;111.50;111.50;;;;;;;;2965154;30;7565301;-79
2021/10/08 03:21:40;;;;;;;;;77.50;75.00;;;;;;;;2612933;30;197068232;-80
2021/10/08 03:30:23;;;;;;;;;;;;;;;;;;2;278937851;278937851;-79
2021/10/08 03:35:44;;;;;;;;;73.00;66.00;;;;;;;;2;211154731;211154731;-80
2021/10/08 03:43:11;;;;;;;;;90.50;90.50;;;;;;;;2;227215438;227215438;-79
2021/10/08 03:50:56;;;;;;;;;86.00;83.00;;;;;;;;2;207660761;207660761;-80
2021/10/08 03:59:07;;;;;;;;;96.00;96.00;;;;;;;;2;249476026;249476026;-80
2021/10/08 04:06:59;;;;;;;;;92.00;89.00;;;;;;;;2;211404279;211404279;-80
2021/10/08 04:15:13;;;;;;;;;81.00;79.00;;;;;;;;2;256126656;256126656;-80
2021/10/08 04:23:18;;;;;;;;;70.00;64.00;;;;;;;;2;215442366;215442366;-80
2021/10/08 04:31:44;;;;;;;;;76.50;71.50;;;;;;;;2;260738539;260738539;-80
2021/10/08 04:39:49;;;;;;;;;67.50;63.50;;;;;;;;2;219023418;219023418;-80
2021/10/08 04:48:27;;;;;;;;;79.00;72.00;;;;;;;;2;269624622;269624622;-80
2021/10/08 04:56:18;;;;;;;;;82.50;80.50;;;;;;;;2;216482481;216482481;-80
2021/10/08 05:04:52;;;;;;;;;71.00;64.00;;;;;;;;2;257222118;257222118;-79
2021/10/08 05:13:23;;;;;;;;;64.00;57.00;;;;;;;;2;228244119;228244119;-79
2021/10/08 05:22:16;;;;;;;;;71.50;66.50;;;;;;;;2;275784770;275784770;-79
2021/10/08 05:30:52;;;;;;;;;73.00;66.00;;;;;;;;2;230383940;230383940;-77
2021/10/08 05:39:45;;;;;;;;;70.00;63.00;;;;;;;;2;275379787;275379787;-80
2021/10/08 05:48:19;;;;;;;;;63.50;56.50;;;;;;;;2;230038491;230038491;-79
2021/10/08 05:57:12;;;;;;;;;62.50;57.00;;;;;;;;2;275756196;275756196;-78
2021/10/08 06:05:50;;;;;;;;;85.00;85.00;;;;;;;;2;231671369;231671369;-82
2021/10/08 06:14:39;;;;;;;;;76.00;72.00;;;;;;;;2;272795810;272795810;-79
2021/10/08 06:23:11;;;;;;;;;71.50;65.50;;;;;;;;2;228754097;228754097;-79
2021/10/08 06:32:09;;;;;;;;;75.50;70.50;;;;;;;;2;276630643;276630643;-79
2021/10/08 06:40:51;;;;;;;;;73.00;66.50;;;;;;;;2;234070686;234070686;-79
2021/10/08 06:49:49;;;;;;;;;75.50;70.00;;;;;;;;2;279081620;279081620;-79
2021/10/08 06:58:06;;;;;;;;;73.50;68.00;;;;;;;;2;217858597;217858597;-79
2021/10/08 07:07:02;;;;;;;;;68.50;61.50;;;;;;;;2;275049666;275049666;-79
2021/10/08 07:15:45;;;;;;;;;72.00;65.00;;;;;;;;2;234067180;234067180;-79
2021/10/08 07:24:45;;;;;;;;;70.00;62.50;;;;;;;;2;278993269;278993269;-79
2021/10/08 07:33:28;;;;;;;;;74.50;67.50;;;;;;;;2;234070977;234070977;-79
2021/10/08 07:40:40;;;;;;;;;73.00;67.00;;;;;;;;3;45112846;165059912;-79
2021/10/08 07:47:25;;;;;;;;;70.50;65.00;;;;;;;;2;251822370;251822370;-80
2021/10/08 07:53:31;;;;;;;;;77.50;73.50;;;;;;;;2;231725459;231725459;-79
2021/10/08 08:04:19;;;;;;;;;81.50;80.50;;;;;;;;3;134978522;251502735;-79
2021/10/08 08:12:57;;;;;;;;;;;;;;;;;;2;234067848;234067848;-80
2021/10/08 08:21:24;;;;;;;;;54.00;45.50;;;;;;;;2;261733436;261733436;-80
2021/10/08 08:29:31;;;;;;;;;71.50;65.00;;;;;;;;2;219841864;219841864;-80
2021/10/08 08:37:49;;;;;;;;;76.00;71.00;;;;;;;;2;258335718;258335718;-79
2021/10/08 08:45:42;;;;;;;;;74.00;68.50;;;;;;;;2;209105463;209105463;-79
2021/10/08 08:53:53;;;;;;;;;70.50;62.50;;;;;;;;2;255591107;255591107;-79
2021/10/08 09:02:01;;;;;;;;;72.00;65.50;;;;;;;;2;213552145;213552145;-78
2021/10/08 09:10:17;;;;;;;;;63.50;54.50;;;;;;;;2;243733973;243733973;-78
2021/10/08 09:17:33;;;;;;;;;56.00;47.00;;;;;;;;2;194680556;194680556;-79
2021/10/08 09:25:22;;;;;;;;;57.50;48.00;;;;;;;;2;237068883;237068883;-79
2021/10/08 09:32:51;;;;;;;;;51.50;44.00;;;;;;;;2;204644832;204644832;-77
2021/10/08 09:40:32;;;;;;;;;60.00;50.00;;;;;;;;2;228606192;228606192;-77
2021/10/08 09:47:59;;;;;;;;;53.00;45.00;;;;;;;;2;195564081;195564081;-77
2021/10/08 09:53:58;;;;;;;;;64.00;53.00;;;;;;;;2;150598600;150598600;-78
2021/10/08 10:01:25;;;;;;;;;43.00;38.00;;;;;;;;2;191602912;191602912;-81
2021/10/08 10:09:08;;;;;;;;;53.00;45.00;;;;;;;;2;234773489;234773489;-78
2021/10/08 10:16:44;;;;;;;;;41.00;36.50;;;;;;;;2;206320986;206320986;-77
2021/10/08 10:24:38;;;;;;;;;49.50;42.50;;;;;;;;2;240722865;240722865;-84
2021/10/08 10:32:18;;;;;;;;;43.00;37.50;;;;;;;;2;199698005;199698005;-78
2021/10/08 10:40:20;;;;;;;;;51.00;43.00;;;;;;;;2;245112271;245112271;-79
2021/10/08 10:48:18;;;;;;;;;58.50;48.50;;;;;;;;2;202948607;202948607;-79
2021/10/08 10:56:37;;;;;;;;;47.00;40.50;;;;;;;;2;266589326;266589326;-78
2021/10/08 11:05:20;;;;;;;;;46.50;40.00;;;;;;;;2;227476329;227476329;-78
2021/10/08 11:14:21;;;;;;;;;55.00;46.50;;;;;;;;2;278937918;278937918;-78
2021/10/08 11:23:19;;;;;;;;;43.50;38.50;;;;;;;;2;233846612;233846612;-78
2021/10/08 11:31:43;;;;;;;;;52.50;45.00;;;;;;;;2;274434739;274434739;-78
2021/10/08 11:39:47;;;;;;;;;25.00;25.00;;;;;;;;2;215973364;215973364;-78
2021/10/08 11:48:12;;;;;;;;;41.00;36.50;;;;;;;;2;253908575;253908575;-78
2021/10/08 11:56:27;;;;;;;;;30.00;29.00;;;;;;;;2;216294118;216294118;-78
2021/10/08 12:05:10;;;;;;;;;26.00;26.00;;;;;;;;2;269784103;269784103;-78
2021/10/08 12:13:52;;;;;;;;;28.50;28.50;;;;;;;;2;223810608;223810608;-78
2021/10/08 12:22:36;;;;;;;;;38.00;35.00;;;;;;;;2;268429248;268429248;-78
2021/10/08 12:31:04;;;;;;;;;31.50;29.50;;;;;;;;2;223790864;223790864;-78
2021/10/08 12:40:13;;;;;;;;;23.50;23.50;;;;;;;;2;271389981;271389981;-78
2021/10/08 12:48:58;;;;;;;;;6.50;6.50;;;;;;;;2;231467090;231467090;-78
2021/10/08 12:58:02;;;;;;;;;25.50;23.00;;;;;;;;2;271154153;271154153;-78
2021/10/08 13:06:43;;;;;;;;;46.50;40.50;;;;;;;;2;233622868;233622868;-77
2021/10/08 13:15:42;;;;;;;;;23.00;23.00;;;;;;;;2;276141282;276141282;-77
2021/10/08 13:24:14;;;;;;;;;33.00;31.50;;;;;;;;2;227376960;227376960;-77
2021/10/08 13:32:43;;;;;;;;;19.50;19.50;;;;;;;;2;261860240;261860240;-78
2021/10/08 13:41:13;;;;;;;;;28.00;26.50;;;;;;;;2;226941996;226941996;-78
2021/10/08 13:50:07;;;;;;;;;28.50;27.00;;;;;;;;2;275122743;275122743;-77
2021/10/08 13:58:50;;;;;;;;;16.50;16.50;;;;;;;;2;233772091;233772091;-78
2021/10/08 14:08:04;;;;;;;;;12.50;12.50;;;;;;;;2;279012553;279012553;-78
2021/10/08 14:16:39;;;;;;;;;35.00;32.00;;;;;;;;2;231498026;231498026;-79
2021/10/08 14:25:35;;;;;;;;;22.00;21.00;;;;;;;;2;276981906;276981906;-79
2021/10/08 14:34:12;;;;;;;;;23.50;22.00;;;;;;;;2;231610631;231610631;-79
2021/10/08 14:43:07;;;;;;;;;22.50;22.50;;;;;;;;2;275596075;275596075;-79
2021/10/08 14:51:43;;;;;;;;;25.50;24.50;;;;;;;;2;231131643;231131643;-79
2021/10/08 15:00:39;;;;;;;;;26.00;26.00;;;;;;;;2;274761639;274761639;-79
2021/10/08 15:09:16;;;;;;;;;26.00;26.00;;;;;;;;2;231818688;231818688;-78
2021/10/08 15:18:11;;;;;;;;;35.00;33.00;;;;;;;;2;275464401;275464401;-78
2021/10/08 15:26:47;;;;;;;;;33.50;31.50;;;;;;;;2;231572407;231572407;-78
2021/10/08 15:35:40;;;;;;;;;29.00;29.00;;;;;;;;2;275305353;275305353;-79
2021/10/08 15:44:13;;;;;;;;;20.00;20.00;;;;;;;;2;229111389;229111389;-79
2021/10/08 15:53:05;;;;;;;;;24.50;24.50;;;;;;;;2;275163804;275163804;-79
2021/10/08 16:01:34;;;;;;;;;21.00;21.00;;;;;;;;2;228470237;228470237;-79
2021/10/08 16:10:26;;;;;;;;;36.00;33.00;;;;;;;;2;273590101;273590101;-79
2021/10/08 16:22:26;;;;;;;;;21.50;21.50;;;;;;;;2;233630277;233630277;-79
2021/10/08 16:31:22;;;;;;;;;24.50;24.50;;;;;;;;2;276861663;276861663;-79
2021/10/08 16:40:00;;;;;;;;;29.00;29.00;;;;;;;;2;229686803;229686803;-79
2021/10/08 16:49:01;;;;;;;;;35.50;32.50;;;;;;;;2;278997833;278997833;-79
2021/10/08 16:57:47;;;;;;;;;35.00;33.00;;;;;;;;2;234068700;234068700;-82
2021/10/08 17:06:50;;;;;;;;;28.00;25.50;;;;;;;;2;279080509;279080509;-78
2021/10/08 17:15:32;;;;;;;;;38.00;34.50;;;;;;;;2;234071767;234071767;-77
2021/10/08 17:24:36;;;;;;;;;43.00;38.00;;;;;;;;2;279083197;279083197;-77
2021/10/08 17:42:35;;;;;;;;;43.00;38.00;;;;;;;;2;278285818;278285818;-78
2021/10/08 17:51:14;;;;;;;;;34.50;31.00;;;;;;;;2;231758232;231758232;-78
2021/10/08 18:00:14;;;;;;;;;52.50;44.50;;;;;;;;2;278736067;278736067;-79
2021/10/08 18:08:54;;;;;;;;;35.00;31.50;;;;;;;;2;233547426;233547426;-78
2021/10/08 18:17:50;;;;;;;;;45.00;40.00;;;;;;;;2;276343128;276343128;-78
2021/10/08 18:26:31;;;;;;;;;39.00;35.50;;;;;;;;2;233328801;233328801;-78
2021/10/08 18:35:28;;;;;;;;;33.00;29.50;;;;;;;;2;277017834;277017834;-78
2021/10/08 18:44:06;;;;;;;;;56.00;47.50;;;;;;;;2;231789849;231789849;-78
2021/10/08 18:53:03;;;;;;;;;49.00;42.50;;;;;;;;2;277861170;277861170;-77
2021/10/08 19:01:38;;;;;;;;;47.00;41.00;;;;;;;;2;232268335;232268335;-77
2021/10/08 19:28:20;;;;;;;;;49.00;42.50;;;;;;;;2;274471858;274471858;-78
2021/10/08 19:36:52;;;;;;;;;64.50;56.00;;;;;;;;2;229106978;229106978;-78
2021/10/08 19:46:01;;;;;;;;;46.50;40.50;;;;;;;;2;272958114;272958114;-78
2021/10/08 19:54:42;;;;;;;;;52.00;44.00;;;;;;;;2;234070070;234070070;-77
2021/10/08 20:03:43;;;;;;;;;53.00;44.50;;;;;;;;2;277771021;277771021;-78
2021/10/08 20:21:18;;;;;;;;;58.00;48.50;;;;;;;;2;273022947;273022947;-77
2021/10/08 20:29:50;;;;;;;;;39.00;35.50;;;;;;;;2;229611231;229611231;-77
2021/10/08 20:38:33;;;;;;;;;42.50;38.00;;;;;;;;2;269900846;269900846;-79
2021/10/08 20:47:07;;;;;;;;;62.00;52.00;;;;;;;;2;230765289;230765289;-78
2021/10/08 20:55:54;;;;;;;;;65.00;56.50;;;;;;;;2;271375544;271375544;-82
2021/10/08 21:04:27;;;;;;;;;52.00;44.50;;;;;;;;2;230505051;230505051;-81
2021/10/08 21:13:14;;;;;;;;;67.00;59.00;;;;;;;;2;272025525;272025525;-81
2021/10/08 21:21:44;;;;;;;;;64.50;53.50;;;;;;;;2;229541717;229541717;-80
2021/10/08 21:30:28;;;;;;;;;58.50;48.50;;;;;;;;2;268817795;268817795;-80
2021/10/08 21:39:06;;;;;;;;;63.00;54.50;;;;;;;;2;224552845;224552845;-81
2021/10/08 21:47:55;;;;;;;;;60.00;50.00;;;;;;;;2;272577882;272577882;-81
2021/10/08 21:56:27;;;;;;;;;46.00;40.00;;;;;;;;2;228796046;228796046;-81
2021/10/08 22:05:10;;;;;;;;;62.00;50.50;;;;;;;;2;269896635;269896635;-81
2021/10/08 22:13:39;;;;;;;;;56.50;47.00;;;;;;;;2;225370165;225370165;-81
2021/10/08 22:22:27;;;;;;;;;53.50;45.50;;;;;;;;2;271339176;271339176;-81
2021/10/08 22:40:14;;;;;;;;;56.00;47.00;;;;;;;;2;276341088;276341088;-81
2021/10/08 22:48:33;;;;;;;;;53.00;45.00;;;;;;;;2;225109497;225109497;-81
2021/10/08 22:57:09;;;;;;;;;55.50;46.50;;;;;;;;2;264973822;264973822;-81
2021/10/08 23:05:28;;;;;;;;;52.00;44.50;;;;;;;;2;222445310;222445310;-81
2021/10/08 23:14:22;;;;;;;;;65.50;55.50;;;;;;;;2;268009742;268009742;-81
2021/10/08 23:22:35;;;;;;;;;60.00;52.50;;;;;;;;2;219902397;219902397;-81
2021/10/08 23:31:05;;;;;;;;;60.50;51.00;;;;;;;;2;262815300;262815300;-81
2021/10/08 23:39:27;;;;;;;;;64.50;55.50;;;;;;;;2;223885757;223885757;-81
2021/10/08 23:48:03;;;;;;;;;54.50;46.00;;;;;;;;2;266903001;266903001;-80
2021/10/08 23:56:25;;;;;;;;;65.00;55.50;;;;;;;;2;225291334;225291334;-80
